createdAt,value
2019-03-31T00:04:09.084Z,10.80
2019-03-31T00:09:14.957Z,12.30
2019-03-31T00:14:20.657Z,10.73
2019-03-31T00:19:26.810Z,11.97
2019-03-31T00:24:32.768Z,13.70
2019-03-31T00:29:38.148Z,12.37
2019-03-31T00:34:43.521Z,10.80
2019-03-31T00:39:48.975Z,12.23
2019-03-31T00:44:54.406Z,10.97
2019-03-31T00:49:59.898Z,11.13
2019-03-31T00:55:05.602Z,10.23
2019-03-31T01:00:12.815Z,10.50
2019-03-31T01:05:18.910Z,10.97
2019-03-31T01:10:24.852Z,12.80
2019-03-31T01:15:30.628Z,12.73
2019-03-31T01:20:36.102Z,11.70
2019-03-31T01:25:41.629Z,13.50
2019-03-31T01:30:47.623Z,12.27
2019-03-31T01:35:53.142Z,11.70
2019-03-31T01:40:58.908Z,11.47
2019-03-31T01:46:06.247Z,10.83
2019-03-31T01:51:11.852Z,13.67
2019-03-31T01:56:18.478Z,12.50
2019-03-31T02:01:24.170Z,11.17
2019-03-31T02:06:30.076Z,11.20
2019-03-31T02:11:35.769Z,12.30
2019-03-31T02:16:41.264Z,14.23
2019-03-31T02:21:47.558Z,14.07
2019-03-31T02:26:52.988Z,14.77
2019-03-31T02:31:58.849Z,14.57
2019-03-31T02:37:04.369Z,14.30
2019-03-31T02:42:10.461Z,14.80
2019-03-31T02:47:15.998Z,16.40
2019-03-31T02:52:21.431Z,15.47
2019-03-31T02:57:27.674Z,14.57
2019-03-31T03:02:42.277Z,16.10
2019-03-31T03:07:45.311Z,14.67
2019-03-31T03:12:52.657Z,14.27
2019-03-31T03:17:58.275Z,16.83
2019-03-31T03:23:03.778Z,15.87
2019-03-31T03:28:09.530Z,18.17
2019-03-31T03:33:17.703Z,17.40
2019-03-31T03:38:22.247Z,18.50
2019-03-31T03:43:28.035Z,17.80
2019-03-31T03:48:34.680Z,21.40
2019-03-31T03:53:40.702Z,21.93
2019-03-31T03:58:46.182Z,19.77
2019-03-31T04:03:51.623Z,21.13
2019-03-31T04:08:57.339Z,21.30
2019-03-31T04:14:02.868Z,25.83
2019-03-31T04:19:08.307Z,29.70
2019-03-31T04:24:13.706Z,24.73
2019-03-31T04:29:19.517Z,25.30
2019-03-31T04:34:25.281Z,27.63
2019-03-31T04:39:30.956Z,23.33
2019-03-31T04:44:36.676Z,27.00
2019-03-31T04:49:42.009Z,26.53
2019-03-31T04:54:47.473Z,23.80
2019-03-31T04:59:52.844Z,27.53
2019-03-31T05:04:58.346Z,25.73
2019-03-31T05:10:04.191Z,28.53
2019-03-31T05:15:09.674Z,26.43
2019-03-31T05:20:15.473Z,29.07
2019-03-31T05:25:21.121Z,32.23
2019-03-31T05:30:26.613Z,30.03
2019-03-31T05:35:32.330Z,34.50
2019-03-31T05:40:37.991Z,30.87
2019-03-31T05:45:43.836Z,32.20
2019-03-31T05:50:49.344Z,31.27
2019-03-31T05:55:55.289Z,30.80
2019-03-31T06:01:01.551Z,29.90
2019-03-31T06:06:07.166Z,33.13
2019-03-31T06:11:13.175Z,31.47
2019-03-31T06:16:18.570Z,37.50
2019-03-31T06:21:23.984Z,36.90
2019-03-31T06:26:30.006Z,34.83
2019-03-31T06:31:35.428Z,36.10
2019-03-31T06:36:41.170Z,39.50
2019-03-31T06:41:46.757Z,40.03
2019-03-31T06:46:52.401Z,37.97
2019-03-31T06:51:58.394Z,35.50
2019-03-31T06:57:04.593Z,37.87
2019-03-31T07:02:10.362Z,40.00
2019-03-31T07:07:15.793Z,42.03
2019-03-31T07:12:21.746Z,47.87
2019-03-31T07:17:27.437Z,52.97
2019-03-31T07:22:33.478Z,54.80
2019-03-31T07:27:39.470Z,51.53
2019-03-31T07:32:45.125Z,48.83
2019-03-31T07:37:50.565Z,54.47
2019-03-31T07:42:56.811Z,54.70
2019-03-31T07:48:03.070Z,54.90
2019-03-31T07:53:08.520Z,58.13
2019-03-31T07:58:14.235Z,58.37
2019-03-31T08:03:19.922Z,52.60
2019-03-31T08:08:25.272Z,55.23
2019-03-31T08:13:31.076Z,59.73
2019-03-31T08:18:36.708Z,53.80
2019-03-31T08:23:42.141Z,55.77
2019-03-31T08:28:47.869Z,54.63
2019-03-31T08:33:53.573Z,56.70
2019-03-31T08:38:59.108Z,48.70
2019-03-31T08:44:04.696Z,46.17
2019-03-31T08:49:10.160Z,46.07
2019-03-31T08:54:16.233Z,48.23
2019-03-31T08:59:22.445Z,42.77
2019-03-31T09:04:27.877Z,43.30
2019-03-31T09:09:33.232Z,48.67
2019-03-31T09:14:38.950Z,44.10
2019-03-31T09:19:44.792Z,45.40
2019-03-31T09:24:50.415Z,39.50
2019-03-31T09:29:56.142Z,38.53
2019-03-31T09:35:01.921Z,38.70
2019-03-31T09:40:07.562Z,34.73
2019-03-31T09:45:14.637Z,36.07
2019-03-31T09:50:20.843Z,37.07
2019-03-31T09:55:26.830Z,36.47
2019-03-31T10:00:44.925Z,41.70
2019-03-31T10:05:50.927Z,38.67
2019-03-31T10:10:56.429Z,37.37
2019-03-31T10:16:02.400Z,40.37
2019-03-31T10:21:08.307Z,41.37
2019-03-31T10:26:16.143Z,38.17
2019-03-31T10:31:21.083Z,46.47
2019-03-31T10:36:26.496Z,40.87
2019-03-31T10:41:32.513Z,40.83
2019-03-31T10:46:38.230Z,38.37
2019-03-31T10:51:43.734Z,35.73
2019-03-31T10:56:49.754Z,36.87
2019-03-31T11:01:55.200Z,37.20
2019-03-31T11:07:03.475Z,35.77
2019-03-31T11:12:08.053Z,37.30
2019-03-31T11:17:14.348Z,36.00
2019-03-31T11:22:33.529Z,30.27
2019-03-31T11:27:39.643Z,33.03
2019-03-31T11:32:45.309Z,32.23
2019-03-31T11:37:51.521Z,29.83
2019-03-31T11:42:57.477Z,31.53
2019-03-31T11:48:03.008Z,29.67
2019-03-31T11:53:08.712Z,26.73
2019-03-31T11:58:14.077Z,25.87
2019-03-31T12:03:20.153Z,25.10
2019-03-31T12:08:26.107Z,26.60
2019-03-31T12:13:31.601Z,24.80
2019-03-31T12:18:37.115Z,26.10
2019-03-31T12:23:42.905Z,27.07
2019-03-31T12:28:48.929Z,31.07
2019-03-31T12:33:54.557Z,25.47
2019-03-31T12:39:00.012Z,27.73
2019-03-31T12:44:05.449Z,24.90
2019-03-31T12:49:10.967Z,27.67
2019-03-31T12:54:16.601Z,25.83
2019-03-31T12:59:21.940Z,22.63
2019-03-31T13:04:27.767Z,19.70
2019-03-31T13:09:33.477Z,20.27
2019-03-31T13:14:38.981Z,21.53
2019-03-31T13:19:44.374Z,23.50
2019-03-31T13:24:49.807Z,21.97
2019-03-31T13:29:55.791Z,24.47
2019-03-31T13:35:01.284Z,20.50
2019-03-31T13:40:07.416Z,21.20
2019-03-31T13:45:13.502Z,21.43
2019-03-31T13:50:19.163Z,22.53
2019-03-31T13:55:24.934Z,23.87
2019-03-31T14:00:38.152Z,22.33
2019-03-31T14:05:43.663Z,22.73
2019-03-31T14:10:49.344Z,20.07
2019-03-31T14:15:54.909Z,19.87
2019-03-31T14:21:00.647Z,19.07
2019-03-31T14:26:06.341Z,20.23
2019-03-31T14:31:12.030Z,20.07
2019-03-31T14:36:17.476Z,16.77
2019-03-31T14:41:23.129Z,20.93
2019-03-31T14:46:29.433Z,22.73
2019-03-31T14:51:35.061Z,17.67
2019-03-31T14:56:40.510Z,21.83
2019-03-31T15:01:46.020Z,17.47
2019-03-31T15:06:51.662Z,19.17
2019-03-31T15:11:57.277Z,17.73
2019-03-31T15:17:02.963Z,20.67
2019-03-31T15:22:08.390Z,14.97
2019-03-31T15:27:13.831Z,14.50
2019-03-31T15:32:19.429Z,15.20
2019-03-31T15:37:24.861Z,13.13
2019-03-31T15:42:30.273Z,13.77
2019-03-31T15:47:36.924Z,13.13
2019-03-31T15:52:42.885Z,14.83
2019-03-31T15:57:48.301Z,14.00
2019-03-31T16:02:54.543Z,13.80
2019-03-31T16:07:59.701Z,13.00
2019-03-31T16:13:04.612Z,12.40
2019-03-31T16:18:09.537Z,10.73
2019-03-31T16:23:14.356Z,10.60
2019-03-31T16:28:19.211Z,10.53
2019-03-31T16:33:24.091Z,11.13
2019-03-31T16:38:29.007Z,13.10
2019-03-31T16:43:34.410Z,13.43
2019-03-31T16:48:39.552Z,13.83
2019-03-31T16:53:44.362Z,11.07
2019-03-31T16:58:49.521Z,10.37
2019-03-31T17:03:54.692Z,9.17
2019-03-31T17:08:59.756Z,7.73
2019-03-31T17:14:05.079Z,9.40
2019-03-31T17:19:10.214Z,9.30
2019-03-31T17:24:15.205Z,8.53
2019-03-31T17:29:20.493Z,12.87
2019-03-31T17:34:25.544Z,9.63
2019-03-31T17:39:30.565Z,9.60
2019-03-31T17:44:35.894Z,12.87
2019-03-31T17:49:41.036Z,8.67
2019-03-31T17:54:46.155Z,7.90
2019-03-31T17:59:51.365Z,7.77
2019-03-31T18:04:56.509Z,9.33
2019-03-31T18:10:01.873Z,7.17
2019-03-31T18:15:07.254Z,6.90
2019-03-31T18:20:12.216Z,6.03
2019-03-31T18:25:17.839Z,5.70
2019-03-31T18:30:22.732Z,5.33
2019-03-31T18:35:28.499Z,7.30
2019-03-31T18:40:35.121Z,4.67
2019-03-31T18:45:40.174Z,7.53
2019-03-31T18:50:45.668Z,8.30
2019-03-31T18:56:09.624Z,5.37
2019-03-31T19:01:36.454Z,6.73
2019-03-31T19:06:58.684Z,5.27
2019-03-31T19:12:41.167Z,6.90
2019-03-31T19:18:11.629Z,6.40
2019-03-31T19:23:44.571Z,5.93
2019-03-31T19:29:20.802Z,5.10
2019-03-31T19:34:45.728Z,5.50
2019-03-31T19:40:04.811Z,5.33
2019-03-31T19:45:22.856Z,7.40
2019-03-31T19:50:46.051Z,7.53
2019-03-31T19:56:07.539Z,6.83
2019-03-31T20:01:32.961Z,7.20
2019-03-31T20:07:04.767Z,5.87
2019-03-31T20:12:21.993Z,6.33
2019-03-31T20:17:52.461Z,6.33
2019-03-31T20:23:15.208Z,5.07
2019-03-31T20:28:58.191Z,5.57
2019-03-31T20:34:28.451Z,4.43
2019-03-31T20:39:56.126Z,4.87
2019-03-31T20:44:51.172Z,5.47
2019-03-31T20:49:56.315Z,4.83
2019-03-31T20:55:15.342Z,4.57
2019-03-31T21:00:08.429Z,4.30
2019-03-31T21:05:13.941Z,3.47
2019-03-31T21:10:18.812Z,4.30
2019-03-31T21:15:23.876Z,5.40
2019-03-31T21:20:28.698Z,4.70
2019-03-31T21:25:33.813Z,4.70
2019-03-31T21:30:39.517Z,4.73
2019-03-31T21:35:48.246Z,5.33
2019-03-31T21:40:52.574Z,4.83
2019-03-31T21:45:57.450Z,5.37
2019-03-31T21:51:02.404Z,5.37
2019-03-31T21:56:07.925Z,6.77
2019-03-31T22:01:13.331Z,4.57
2019-03-31T22:06:18.738Z,5.33
2019-03-31T22:11:23.981Z,5.63
2019-03-31T22:16:28.858Z,7.93
2019-03-31T22:21:34.088Z,4.23
2019-03-31T22:26:39.470Z,4.63
2019-03-31T22:31:44.959Z,5.63
2019-03-31T22:36:49.901Z,5.30
2019-03-31T22:41:55.186Z,7.00
2019-03-31T22:47:00.189Z,4.80
2019-03-31T22:52:05.141Z,4.80
2019-03-31T22:57:10.344Z,4.73
2019-03-31T23:02:15.218Z,4.20
2019-03-31T23:07:19.952Z,4.50
2019-03-31T23:12:25.295Z,6.63
2019-03-31T23:17:30.241Z,4.90
2019-03-31T23:22:35.399Z,5.60
2019-03-31T23:27:40.804Z,4.70
2019-03-31T23:32:46.030Z,4.37
2019-03-31T23:37:51.180Z,6.43
2019-03-31T23:42:56.581Z,5.03
2019-03-31T23:48:01.517Z,4.57
2019-03-31T23:53:06.725Z,4.83
2019-03-31T23:58:12.343Z,3.70
